Time;durP1;ratioP1;P1;durP2;ratioP2;P2;SDS_P1;SDS_P2;PMS_P1;PMS_P2;Temp;Humidity;BMP_temperature;BMP_pressure;BME280_temperature;BME280_humidity;BME280_pressure;Samples;Min_cycle;Max_cycle;Signal;HPM_P1;HPM_P2
2022/12/04 00:01:39;;;;;;;28.63;16.80;;;;;;;5.44;100.00;101651.50;5029831;28;20048;-81
2022/12/04 00:04:05;;;;;;;33.20;16.58;;;;;;;6.07;100.00;101758.81;5030888;28;20032;-79
2022/12/04 00:06:32;;;;;;;28.42;16.13;;;;;;;6.07;100.00;101769.06;5024850;28;20039;-77
2022/12/04 00:08:58;;;;;;;27.65;16.20;;;;;;;6.07;100.00;101771.66;5026891;28;20035;-76
2022/12/04 00:11:27;;;;;;;29.08;15.68;;;;;;;5.94;100.00;101744.16;5024598;28;20030;-81
2022/12/04 00:13:53;;;;;;;31.30;16.58;;;;;;;5.85;100.00;101746.00;5022812;28;20060;-77
2022/12/04 00:16:22;;;;;;;28.27;15.57;;;;;;;6.10;100.00;101769.28;5029875;28;20026;-77
2022/12/04 00:18:47;;;;;;;29.27;15.90;;;;;;;6.07;100.00;101766.50;5028772;28;20507;-81
2022/12/04 00:21:14;;;;;;;29.83;16.17;;;;;;;6.02;100.00;101760.16;5023400;28;20116;-78
2022/12/04 00:23:41;;;;;;;26.02;15.98;;;;;;;5.98;100.00;101761.59;5009956;28;20033;-76
2022/12/04 00:26:18;;;;;;;23.20;14.48;;;;;;;6.04;100.00;101765.38;5024028;28;20531;-76
2022/12/04 00:28:45;;;;;;;26.95;14.43;;;;;;;6.13;100.00;101768.63;5029724;28;20479;-76
2022/12/04 00:31:13;;;;;;;28.67;15.50;;;;;;;6.13;100.00;101769.53;5030721;28;20049;-79
2022/12/04 00:33:39;;;;;;;26.30;14.13;;;;;;;6.09;100.00;101777.78;5024753;28;20805;-78
2022/12/04 00:36:07;;;;;;;25.17;14.55;;;;;;;5.95;100.00;101743.34;5026333;28;20036;-82
2022/12/04 00:38:33;;;;;;;24.83;14.52;;;;;;;6.03;100.00;101764.50;5022680;28;20537;-78
2022/12/04 00:41:02;;;;;;;28.38;15.07;;;;;;;5.87;100.00;101728.16;5025647;28;20032;-75
2022/12/04 00:43:29;;;;;;;24.38;14.90;;;;;;;6.10;100.00;101774.41;5008855;28;20471;-77
2022/12/04 00:45:55;;;;;;;25.88;15.63;;;;;;;6.07;100.00;101760.47;5007901;28;20049;-76
2022/12/04 00:48:21;;;;;;;26.50;15.05;;;;;;;5.79;100.00;101720.78;5023024;28;20071;-76
2022/12/04 00:50:46;;;;;;;22.13;13.60;;;;;;;6.07;100.00;101765.59;5023233;28;20488;-79
2022/12/04 00:53:12;;;;;;;22.80;13.73;;;;;;;6.05;100.00;101764.63;5023343;28;20041;-80
2022/12/04 00:55:38;;;;;;;24.67;13.90;;;;;;;6.08;100.00;101763.19;5027106;28;20083;-80
2022/12/04 00:58:04;;;;;;;28.05;13.30;;;;;;;6.08;100.00;101765.75;5025067;28;20059;-77
2022/12/04 01:00:30;;;;;;;24.90;13.48;;;;;;;5.99;100.00;101750.56;5022852;28;20080;-78
2022/12/04 01:02:55;;;;;;;23.42;13.43;;;;;;;6.01;100.00;101747.19;5046186;28;20063;-76
2022/12/04 01:05:21;;;;;;;21.55;13.55;;;;;;;5.97;100.00;101748.63;5034614;28;20026;-77
2022/12/04 01:07:46;;;;;;;18.95;12.10;;;;;;;5.92;100.00;101740.56;5030033;28;20026;-78
2022/12/04 01:10:12;;;;;;;22.42;12.40;;;;;;;6.01;100.00;101758.34;5030122;28;20033;-78
2022/12/04 01:12:37;;;;;;;20.85;12.45;;;;;;;5.99;100.00;101758.25;5039847;28;20021;-79
2022/12/04 01:15:04;;;;;;;20.13;12.32;;;;;;;6.02;100.00;101764.38;5036651;28;20028;-78
2022/12/04 01:17:30;;;;;;;22.40;13.00;;;;;;;5.96;100.00;101747.72;5061356;28;20033;-77
2022/12/04 01:19:55;;;;;;;21.85;11.95;;;;;;;5.83;100.00;101717.69;5059843;28;20031;-77
2022/12/04 01:22:20;;;;;;;19.63;11.15;;;;;;;6.07;100.00;101765.59;5050001;28;20029;-77
2022/12/04 01:24:46;;;;;;;22.27;11.35;;;;;;;6.08;100.00;101763.19;5050255;28;20029;-78
2022/12/04 01:27:11;;;;;;;20.58;11.70;;;;;;;6.10;100.00;101769.28;5050113;28;20117;-78
2022/12/04 01:29:37;;;;;;;19.15;11.45;;;;;;;6.12;100.00;101772.00;5049029;28;20090;-78
2022/12/04 01:32:02;;;;;;;19.00;11.65;;;;;;;6.09;100.00;101771.75;5050542;28;20608;-78
2022/12/04 01:34:31;;;;;;;18.38;10.98;;;;;;;6.04;100.00;101761.13;5050244;28;20044;-78
2022/12/04 01:36:56;;;;;;;18.48;10.70;;;;;;;6.02;100.00;101785.78;5053536;28;20415;-78
2022/12/04 01:39:21;;;;;;;18.00;10.48;;;;;;;6.00;100.00;101784.75;5053942;28;20036;-78
2022/12/04 01:41:47;;;;;;;22.70;11.20;;;;;;;6.04;100.00;101778.19;5053953;28;20025;-78
2022/12/04 01:44:16;;;;;;;16.98;9.90;;;;;;;6.03;100.00;101773.84;5054113;28;20033;-79
2022/12/04 01:46:58;;;;;;;13.07;7.78;;;;;;;6.02;100.00;101761.81;5054194;28;20032;-79
2022/12/04 01:49:46;;;;;;;17.20;10.13;;;;;;;5.83;100.00;101719.34;5053904;28;20033;-78
2022/12/04 01:52:20;;;;;;;18.65;9.48;;;;;;;5.91;100.00;101754.16;5053908;28;20013;-78
2022/12/04 01:54:50;;;;;;;15.20;8.45;;;;;;;6.07;100.00;101761.38;5053645;28;20021;-77
2022/12/04 01:57:18;;;;;;;13.98;8.70;;;;;;;6.08;100.00;101767.41;5053680;28;20025;-79
2022/12/04 01:59:57;;;;;;;16.20;9.35;;;;;;;6.07;100.00;101766.50;5053963;28;20057;-79
2022/12/04 02:02:31;;;;;;;14.32;8.00;;;;;;;5.93;100.00;101754.28;5053861;28;20036;-79
2022/12/04 02:04:56;;;;;;;13.52;8.65;;;;;;;6.04;100.00;101762.81;5052199;28;20029;-79
2022/12/04 02:07:22;;;;;;;12.75;8.38;;;;;;;6.05;100.00;101767.19;5053344;28;20032;-79
2022/12/04 02:09:52;;;;;;;15.85;9.20;;;;;;;6.06;100.00;101751.91;5053671;28;20021;-79
2022/12/04 02:12:32;;;;;;;17.55;9.90;;;;;;;6.17;100.00;101768.09;5053163;28;20432;-79
2022/12/04 02:15:11;;;;;;;13.35;8.52;;;;;;;6.18;100.00;101762.22;5053312;28;20017;-78
2022/12/04 02:17:42;;;;;;;15.98;8.85;;;;;;;6.24;100.00;101764.31;5053270;28;20146;-80
2022/12/04 02:20:35;;;;;;;21.35;9.55;;;;;;;6.31;100.00;101756.31;5053493;28;20029;-79
2022/12/04 02:23:01;;;;;;;18.52;8.82;;;;;;;6.36;100.00;101746.41;5053523;28;20110;-80
2022/12/04 02:25:54;;;;;;;14.13;7.53;;;;;;;6.38;100.00;101758.56;5053162;28;20475;-79
2022/12/04 02:28:33;;;;;;;16.08;7.68;;;;;;;6.40;100.00;101763.81;5053155;28;20398;-79
2022/12/04 02:31:01;;;;;;;13.60;7.70;;;;;;;6.40;100.00;101762.13;5053052;28;20037;-79
2022/12/04 02:33:40;;;;;;;27.23;8.27;;;;;;;6.40;100.00;101758.69;5053005;28;20037;-81
2022/12/04 02:36:12;;;;;;;16.67;8.83;;;;;;;6.41;100.00;101763.03;5051665;28;20033;-79
2022/12/04 02:38:54;;;;;;;14.38;7.68;;;;;;;6.46;100.00;101762.59;5053100;28;20317;-79
2022/12/04 02:41:23;;;;;;;16.33;9.20;;;;;;;6.43;100.00;101759.81;5053017;28;20022;-79
2022/12/04 02:44:02;;;;;;;19.77;9.55;;;;;;;6.41;100.00;101763.91;5052876;28;20479;-79
2022/12/04 02:46:35;;;;;;;10.52;7.05;;;;;;;6.47;100.00;101766.06;5052458;28;20029;-79
2022/12/04 02:49:05;;;;;;;27.92;9.48;;;;;;;6.42;100.00;101760.56;5052690;28;20033;-79
2022/12/04 02:51:34;;;;;;;18.83;9.05;;;;;;;6.42;100.00;101764.81;5052938;28;20032;-79
2022/12/04 02:54:08;;;;;;;13.38;8.65;;;;;;;6.46;100.00;101764.25;5052773;28;20028;-80
2022/12/04 02:56:38;;;;;;;11.68;7.70;;;;;;;6.50;100.00;101771.41;5052922;28;20032;-79
2022/12/04 02:59:35;;;;;;;13.10;8.15;;;;;;;6.43;100.00;101762.38;5052372;28;20551;-78
2022/12/04 03:02:08;;;;;;;15.52;8.88;;;;;;;6.46;100.00;101764.25;5051317;28;20040;-79
2022/12/04 03:04:35;;;;;;;12.40;8.75;;;;;;;6.39;100.00;101751.75;5052344;28;20036;-79
2022/12/04 03:07:08;;;;;;;13.98;9.20;;;;;;;6.35;100.00;101742.06;5052719;28;20017;-79
2022/12/04 03:10:04;;;;;;;15.13;8.70;;;;;;;6.44;100.00;101768.38;5052105;28;20162;-79
2022/12/04 03:12:42;;;;;;;13.30;8.65;;;;;;;6.20;100.00;101721.28;5010108;28;20033;-79
2022/12/04 03:15:14;;;;;;;15.32;9.23;;;;;;;6.36;100.00;101761.81;5010170;28;20038;-79
2022/12/04 03:17:49;;;;;;;13.75;7.90;;;;;;;6.10;100.00;101725.72;5010214;28;20120;-79
2022/12/04 03:20:16;;;;;;;21.25;9.02;;;;;;;6.29;100.00;101757.88;4993564;28;20030;-79
2022/12/04 03:22:44;;;;;;;19.40;9.40;;;;;;;6.27;100.00;101760.31;5010046;28;20080;-80
2022/12/04 03:25:10;;;;;;;12.50;8.35;;;;;;;6.35;100.00;101766.03;5010066;28;20030;-79
2022/12/04 03:27:36;;;;;;;19.67;8.48;;;;;;;6.35;100.00;101768.59;5010059;28;20030;-79
2022/12/04 03:30:09;;;;;;;13.40;8.32;;;;;;;6.31;100.00;101772.59;5009828;28;20044;-79
2022/12/04 03:32:43;;;;;;;14.20;9.00;;;;;;;6.26;100.00;101773.91;5009615;28;20531;-79
2022/12/04 03:35:40;;;;;;;14.20;9.45;;;;;;;6.32;100.00;101771.81;5009704;28;20034;-79
2022/12/04 03:38:45;;;;;;;12.23;9.32;;;;;;;6.22;100.00;101761.66;5009503;28;20034;-79
2022/12/04 03:41:31;;;;;;;16.02;8.80;;;;;;;6.34;100.00;101764.22;5007689;28;20109;-79
2022/12/04 03:44:17;;;;;;;15.48;8.55;;;;;;;6.32;100.00;101768.38;5006588;28;20041;-80
2022/12/04 03:47:01;;;;;;;25.10;8.77;;;;;;;6.29;100.00;101763.91;5009409;28;20030;-81
2022/12/04 03:50:19;;;;;;;23.40;8.88;;;;;;;6.39;100.00;101767.16;5033936;28;20609;-79
2022/12/04 03:52:53;;;;;;;16.60;7.60;;;;;;;6.34;100.00;101783.88;4970370;28;20105;-79
2022/12/04 03:55:33;;;;;;;18.75;7.65;;;;;;;6.35;100.00;101763.47;4970395;28;20065;-79
2022/12/04 03:58:05;;;;;;;23.50;8.40;;;;;;;6.38;100.00;101766.25;4953949;28;20442;-79
2022/12/04 04:00:32;;;;;;;16.27;6.68;;;;;;;6.46;100.00;101772.84;4970224;28;20530;-79
2022/12/04 04:03:21;;;;;;;18.70;5.95;;;;;;;6.46;100.00;101780.53;4970240;28;20121;-79
2022/12/04 04:05:51;;;;;;;7.93;5.00;;;;;;;6.43;100.00;101772.63;4970263;28;20562;-78
2022/12/04 04:08:29;;;;;;;;;;;;;;;6.48;100.00;101775.53;4970672;28;20544;-79
2022/12/04 04:11:06;;;;;;;11.40;4.47;;;;;;;6.32;100.00;101753.88;4970078;28;20009;-79
2022/12/04 04:24:49;;;;;;;6.43;3.42;;;;;;;6.66;100.00;101781.13;4970307;28;20085;-79
2022/12/04 04:27:14;;;;;;;7.20;3.80;;;;;;;6.56;100.00;101784.69;5005264;28;20038;-79
2022/12/04 04:29:42;;;;;;;5.60;3.58;;;;;;;6.50;100.00;101779.09;5031172;28;20043;-79
2022/12/04 04:32:47;;;;;;;4.53;3.38;;;;;;;6.57;100.00;101778.78;5030987;28;20036;-79
2022/12/04 04:35:18;;;;;;;5.97;3.50;;;;;;;6.60;100.00;101775.53;5030446;28;20046;-79
2022/12/04 04:37:56;;;;;;;7.47;3.40;;;;;;;6.55;100.00;101776.88;5030772;28;20043;-79
2022/12/04 04:40:22;;;;;;;5.85;3.00;;;;;;;6.16;100.00;101712.47;5030822;28;20034;-79
2022/12/04 04:42:59;;;;;;;4.63;2.60;;;;;;;6.54;100.00;101786.25;5030730;28;20458;-79
2022/12/04 04:45:57;;;;;;;5.78;3.28;;;;;;;6.56;100.00;101794.06;5030792;28;20022;-79
2022/12/04 04:48:32;;;;;;;4.63;2.80;;;;;;;6.59;100.00;101794.28;5030858;28;20041;-79
2022/12/04 04:51:00;;;;;;;5.10;2.72;;;;;;;6.55;100.00;101795.72;5030941;28;20029;-79
2022/12/04 04:53:32;;;;;;;5.05;3.03;;;;;;;6.43;100.00;101787.09;5045921;28;20468;-79
2022/12/04 04:55:58;;;;;;;6.05;3.10;;;;;;;6.55;100.00;101803.41;5030765;28;20036;-79
2022/12/04 04:58:24;;;;;;;4.93;3.17;;;;;;;6.32;100.00;101758.13;5030424;28;20030;-79
2022/12/04 05:00:58;;;;;;;4.55;2.85;;;;;;;6.60;100.00;101812.38;5042828;28;20486;-79
2022/12/04 05:03:24;;;;;;;4.30;3.00;;;;;;;6.53;100.00;101812.69;5050416;28;20036;-79
2022/12/04 05:05:49;;;;;;;4.72;2.85;;;;;;;6.49;100.00;101810.66;5050658;28;20057;-79
2022/12/04 05:08:15;;;;;;;5.90;3.05;;;;;;;6.41;100.00;101797.25;5050313;28;20071;-78
2022/12/04 05:10:40;;;;;;;5.50;3.35;;;;;;;6.42;100.00;101785.34;5053954;28;20029;-79
2022/12/04 05:13:06;;;;;;;5.38;3.00;;;;;;;6.54;100.00;101809.34;5057113;28;20487;-79
2022/12/04 05:15:31;;;;;;;6.65;3.78;;;;;;;6.44;100.00;101794.94;5057046;28;20440;-79
2022/12/04 05:17:56;;;;;;;7.85;3.83;;;;;;;6.39;100.00;101779.97;5056756;28;20561;-79
2022/12/04 05:20:22;;;;;;;10.68;4.32;;;;;;;6.63;100.00;101812.59;5056814;28;20025;-84
2022/12/04 05:22:47;;;;;;;9.05;3.92;;;;;;;6.45;100.00;101788.13;5056942;28;20442;-79
2022/12/04 05:25:13;;;;;;;11.82;3.90;;;;;;;6.64;100.00;101818.59;5059582;28;20453;-78
2022/12/04 05:27:38;;;;;;;10.68;4.10;;;;;;;6.39;100.00;101785.09;5063879;28;20502;-79
2022/12/04 05:30:06;;;;;;;7.28;3.85;;;;;;;6.51;100.00;101814.25;5063890;28;20021;-78
2022/12/04 05:32:31;;;;;;;8.95;3.83;;;;;;;6.09;100.00;101741.91;5061241;28;20128;-79
2022/12/04 05:34:57;;;;;;;8.63;4.60;;;;;;;6.47;100.00;101812.25;5064407;28;20108;-79
2022/12/04 05:37:23;;;;;;;8.57;4.00;;;;;;;6.46;100.00;101815.56;5062317;28;20093;-79
2022/12/04 05:39:50;;;;;;;5.32;3.38;;;;;;;6.45;100.00;101812.09;5066910;28;20093;-79
2022/12/04 05:42:15;;;;;;;6.32;3.60;;;;;;;6.43;100.00;101815.31;5062752;28;20025;-79
2022/12/04 05:44:41;;;;;;;6.13;4.35;;;;;;;6.32;100.00;101805.16;5069105;28;20495;-79
2022/12/04 05:47:06;;;;;;;6.30;3.75;;;;;;;6.38;100.00;101815.00;5076827;28;20027;-79
2022/12/04 05:49:33;;;;;;;5.80;4.05;;;;;;;6.44;100.00;101829.94;5076683;28;20036;-80
2022/12/04 05:52:00;;;;;;;6.50;3.65;;;;;;;6.47;100.00;101822.50;5076751;28;20547;-79
2022/12/04 05:54:26;;;;;;;6.75;3.58;;;;;;;6.45;100.00;101832.63;5092595;28;20036;-79
2022/12/04 05:56:51;;;;;;;9.75;4.43;;;;;;;6.39;100.00;101826.16;5077046;28;20035;-79
2022/12/04 05:59:17;;;;;;;6.30;3.88;;;;;;;6.14;100.00;101785.81;5076908;28;20028;-79
2022/12/04 06:01:43;;;;;;;6.95;3.47;;;;;;;6.40;100.00;101820.25;5076534;28;20044;-79
2022/12/04 06:04:10;;;;;;;7.72;3.55;;;;;;;6.30;100.00;101814.41;5076708;28;20029;-79
2022/12/04 06:06:36;;;;;;;4.65;3.28;;;;;;;6.36;100.00;101834.50;5076634;28;20052;-79
2022/12/04 06:09:03;;;;;;;8.68;4.30;;;;;;;6.37;100.00;101827.69;5076874;28;20043;-79
2022/12/04 06:11:32;;;;;;;6.00;3.47;;;;;;;6.34;100.00;101820.66;5076680;28;20389;-79
2022/12/04 06:13:59;;;;;;;8.75;3.53;;;;;;;6.02;100.00;101764.38;5075230;28;20410;-79
2022/12/04 06:16:30;;;;;;;12.45;3.80;;;;;;;6.43;100.00;101834.19;5076803;28;20028;-83
2022/12/04 06:19:03;;;;;;;10.55;3.58;;;;;;;6.39;100.00;101834.75;5092415;28;20035;-79
2022/12/04 06:21:30;;;;;;;8.35;3.70;;;;;;;6.18;100.00;101798.13;5075737;28;20055;-79
2022/12/04 06:23:56;;;;;;;7.28;3.20;;;;;;;6.36;100.00;101831.06;5073368;28;20766;-79
2022/12/04 06:26:23;;;;;;;5.82;2.97;;;;;;;6.35;100.00;101835.28;5073457;28;20060;-79
2022/12/04 06:28:51;;;;;;;5.88;2.83;;;;;;;6.40;100.00;101838.19;5073541;28;20090;-79
2022/12/04 06:31:17;;;;;;;6.45;3.20;;;;;;;6.29;100.00;101838.28;5073168;28;20115;-79
2022/12/04 06:33:43;;;;;;;8.77;3.55;;;;;;;6.34;100.00;101850.56;5073211;28;20112;-79
2022/12/04 06:36:12;;;;;;;7.35;2.90;;;;;;;6.15;100.00;101813.25;5064511;28;20032;-78
2022/12/04 06:38:38;;;;;;;5.32;3.10;;;;;;;6.03;100.00;101799.47;5042393;28;20029;-79
2022/12/04 06:41:09;;;;;;;4.88;2.70;;;;;;;6.35;100.00;101857.47;5032930;28;20033;-79
2022/12/04 06:43:34;;;;;;;5.28;2.60;;;;;;;6.31;100.00;101854.66;5032783;28;20025;-78
2022/12/04 06:46:05;;;;;;;4.20;2.38;;;;;;;6.31;100.00;101862.34;5032488;28;20025;-77
2022/12/04 06:48:31;;;;;;;4.75;2.83;;;;;;;6.30;100.00;101860.56;5032469;28;20091;-80
2022/12/04 06:51:09;;;;;;;3.35;2.40;;;;;;;6.34;100.00;101865.94;5051843;28;20029;-75
2022/12/04 06:53:35;;;;;;;4.13;2.38;;;;;;;6.29;100.00;101869.06;5041881;28;20033;-73
2022/12/04 06:56:03;;;;;;;4.18;2.30;;;;;;;6.30;100.00;101869.94;5047698;28;20026;-76
2022/12/04 06:58:29;;;;;;;3.47;2.53;;;;;;;6.29;100.00;101876.75;5051736;28;20037;-75
2022/12/04 07:00:55;;;;;;;4.22;2.50;;;;;;;6.32;100.00;101879.53;5044832;28;20107;-78
2022/12/04 07:03:21;;;;;;;7.50;2.60;;;;;;;6.28;100.00;101867.28;5044290;28;20094;-77
2022/12/04 07:05:47;;;;;;;4.28;2.60;;;;;;;6.27;100.00;101868.03;5050706;28;20048;-79
2022/12/04 07:08:14;;;;;;;4.65;2.88;;;;;;;6.25;100.00;101868.69;5052237;28;20446;-79
2022/12/04 07:10:40;;;;;;;7.93;2.60;;;;;;;6.28;100.00;101892.00;5050156;28;20453;-80
2022/12/04 07:13:06;;;;;;;4.18;2.40;;;;;;;6.26;100.00;101880.75;5035396;28;20075;-78
2022/12/04 07:15:33;;;;;;;5.22;2.90;;;;;;;6.27;100.00;101868.03;5031798;28;20104;-83
2022/12/04 07:17:59;;;;;;;7.32;3.33;;;;;;;6.39;100.00;101885.16;5031716;28;20037;-77
2022/12/04 07:20:25;;;;;;;5.35;2.50;;;;;;;6.41;100.00;101889.59;5037134;28;20033;-81
2022/12/04 07:22:50;;;;;;;3.97;2.70;;;;;;;6.27;100.00;101878.28;5039068;28;20036;-77
2022/12/04 07:25:18;;;;;;;4.72;2.58;;;;;;;6.19;100.00;101874.22;5040540;28;20029;-78
2022/12/04 07:27:43;;;;;;;4.22;2.85;;;;;;;6.14;100.00;101883.25;5047059;28;20044;-76
2022/12/04 07:30:09;;;;;;;7.75;3.30;;;;;;;6.22;100.00;101887.31;5037975;28;20044;-75
2022/12/04 07:32:35;;;;;;;7.00;3.22;;;;;;;6.27;100.00;101891.13;5044840;28;20124;-74
2022/12/04 07:35:02;;;;;;;9.93;3.13;;;;;;;6.27;100.00;101880.88;5048397;28;20098;-77
2022/12/04 07:37:27;;;;;;;4.35;2.72;;;;;;;6.22;100.00;101877.06;5048952;28;20091;-72
2022/12/04 07:39:53;;;;;;;4.68;2.65;;;;;;;6.21;100.00;101880.38;5048767;28;20579;-74
2022/12/04 07:42:19;;;;;;;3.72;2.28;;;;;;;6.10;100.00;101864.16;5048890;28;20570;-76
2022/12/04 07:44:44;;;;;;;5.05;2.53;;;;;;;6.29;100.00;101888.66;5048848;28;20511;-75
2022/12/04 07:47:10;;;;;;;4.78;2.70;;;;;;;6.25;100.00;101878.97;5048954;28;20441;-73
2022/12/04 07:49:35;;;;;;;4.18;2.47;;;;;;;6.10;100.00;101859.03;5048657;28;20033;-71
2022/12/04 07:52:01;;;;;;;4.28;2.28;;;;;;;6.38;100.00;101909.00;5048643;28;20025;-74
2022/12/04 07:54:26;;;;;;;5.93;2.40;;;;;;;6.30;100.00;101891.34;5043121;28;20116;-72
2022/12/04 07:56:52;;;;;;;5.03;2.72;;;;;;;6.35;100.00;101894.28;5028812;28;20046;-72
2022/12/04 07:59:17;;;;;;;7.63;4.82;;;;;;;6.36;100.00;101892.63;5035930;28;20564;-74
2022/12/04 08:01:43;;;;;;;4.90;3.88;;;;;;;6.36;100.00;101890.06;5036540;28;20523;-75
2022/12/04 08:04:09;;;;;;;3.72;2.72;;;;;;;6.43;100.00;101899.97;5031117;28;20077;-73
2022/12/04 08:06:35;;;;;;;5.63;3.00;;;;;;;6.44;100.00;101901.78;5030973;28;20404;-72
2022/12/04 08:09:00;;;;;;;6.00;4.20;;;;;;;6.39;100.00;101905.66;5044925;28;20025;-72
2022/12/04 08:11:27;;;;;;;11.63;10.55;;;;;;;6.11;100.00;101859.94;5045654;28;20033;-72
2022/12/04 08:13:58;;;;;;;5.68;3.90;;;;;;;6.29;100.00;101897.28;5034798;28;20479;-72
2022/12/04 08:16:24;;;;;;;5.00;3.53;;;;;;;6.22;100.00;101901.78;5031001;28;20056;-72
2022/12/04 08:18:49;;;;;;;15.95;14.38;;;;;;;6.22;100.00;101888.97;5030708;28;20029;-73
2022/12/04 08:21:21;;;;;;;5.60;4.68;;;;;;;6.07;100.00;101879.31;5030761;28;20037;-74
2022/12/04 08:23:49;;;;;;;5.40;3.47;;;;;;;6.23;100.00;101913.84;5030563;28;20411;-73
2022/12/04 08:26:15;;;;;;;4.10;2.30;;;;;;;6.18;100.00;101905.81;5030413;28;20041;-71
2022/12/04 08:28:41;;;;;;;5.07;2.35;;;;;;;6.12;100.00;101892.50;5031012;28;20510;-73
2022/12/04 08:31:17;;;;;;;3.65;2.72;;;;;;;6.25;100.00;101900.34;5030660;28;20033;-71
2022/12/04 08:33:44;;;;;;;3.67;2.40;;;;;;;6.22;100.00;101905.25;5030567;28;20025;-73
2022/12/04 08:36:12;;;;;;;9.93;2.78;;;;;;;6.18;100.00;101892.06;5045954;28;20029;-73
2022/12/04 08:38:38;;;;;;;5.07;2.10;;;;;;;6.29;100.00;101912.66;5040842;28;20036;-74
2022/12/04 08:41:05;;;;;;;7.00;2.47;;;;;;;6.20;100.00;101886.28;5042943;28;20017;-74
2022/12/04 08:43:31;;;;;;;4.10;3.00;;;;;;;6.10;100.00;101884.69;5036540;28;20028;-74
2022/12/04 08:46:00;;;;;;;6.13;4.40;;;;;;;6.09;100.00;101874.31;5035886;28;20025;-73
2022/12/04 08:48:25;;;;;;;4.95;2.92;;;;;;;5.93;100.00;101832.09;5062522;28;20076;-78
2022/12/04 08:50:51;;;;;;;3.15;2.50;;;;;;;6.25;100.00;101897.78;5044737;28;20475;-78
2022/12/04 08:53:17;;;;;;;6.10;3.75;;;;;;;6.19;100.00;101899.88;5044424;28;20029;-77
2022/12/04 08:55:42;;;;;;;7.93;6.15;;;;;;;6.22;100.00;101905.25;5050674;28;20035;-76
2022/12/04 08:58:08;;;;;;;4.18;2.90;;;;;;;6.22;100.00;101892.44;5050582;28;20469;-77
2022/12/04 09:00:33;;;;;;;3.50;2.25;;;;;;;6.11;100.00;101867.63;5050336;28;20537;-77
2022/12/04 09:02:58;;;;;;;6.30;3.00;;;;;;;6.22;100.00;101874.50;5050160;28;20037;-76
2022/12/04 09:05:24;;;;;;;4.72;3.40;;;;;;;6.23;100.00;101889.09;5050242;28;20044;-76
2022/12/04 09:07:50;;;;;;;4.88;3.10;;;;;;;6.11;100.00;101883.91;5048179;28;20037;-76
2022/12/04 09:10:15;;;;;;;3.88;3.03;;;;;;;6.20;100.00;101883.72;5050233;28;20032;-78
2022/12/04 09:12:41;;;;;;;3.20;2.40;;;;;;;6.27;100.00;101879.97;5050036;28;20040;-76
2022/12/04 09:15:07;;;;;;;4.10;2.75;;;;;;;6.35;100.00;101885.69;5050662;28;20083;-76
2022/12/04 09:17:35;;;;;;;3.33;2.35;;;;;;;6.22;100.00;101873.56;5050241;28;20025;-76
2022/12/04 09:20:02;;;;;;;3.45;2.10;;;;;;;6.26;100.00;101879.06;5050266;28;20041;-77
2022/12/04 09:22:28;;;;;;;2.88;1.80;;;;;;;6.28;100.00;101877.53;5048727;28;20041;-76
2022/12/04 09:24:53;;;;;;;4.68;2.03;;;;;;;6.15;100.00;101851.72;5050410;28;20044;-76
2022/12/04 09:27:19;;;;;;;2.40;1.58;;;;;;;6.26;100.00;101861.13;5052950;28;20021;-76
2022/12/04 09:29:44;;;;;;;3.28;1.67;;;;;;;6.37;100.00;101867.06;5052327;28;20124;-81
2022/12/04 09:32:10;;;;;;;4.25;1.40;;;;;;;6.43;100.00;101867.53;5050221;28;20775;-81
2022/12/04 09:34:35;;;;;;;2.15;1.30;;;;;;;6.44;100.00;101865.84;5050108;28;20029;-76
2022/12/04 09:37:01;;;;;;;2.53;1.30;;;;;;;6.26;100.00;101847.41;5049787;28;20029;-76
2022/12/04 09:39:26;;;;;;;1.63;1.10;;;;;;;6.42;100.00;101862.31;5050201;28;20033;-76
2022/12/04 09:42:16;;;;;;;9.18;7.05;;;;;;;6.46;100.00;101861.75;5049797;28;20110;-77
2022/12/04 09:44:48;;;;;;;2.45;1.67;;;;;;;6.53;100.00;101857.97;5050223;28;20068;-75
2022/12/04 09:47:20;;;;;;;3.55;2.15;;;;;;;6.65;100.00;101853.75;5050082;28;20025;-76
2022/12/04 09:49:52;;;;;;;3.97;1.77;;;;;;;6.50;100.00;101842.34;5050136;28;20527;-76
2022/12/04 09:52:39;;;;;;;14.25;7.82;;;;;;;6.60;100.00;101840.63;5048720;28;20505;-76
2022/12/04 09:55:12;;;;;;;9.85;5.38;;;;;;;6.67;100.00;101843.59;5049889;28;20384;-76
2022/12/04 09:57:46;;;;;;;2.10;1.27;;;;;;;6.58;100.00;101836.13;5052815;28;20036;-81
2022/12/04 10:00:14;;;;;;;3.67;2.35;;;;;;;6.53;100.00;101824.63;5053994;28;20059;-76
2022/12/04 10:02:43;;;;;;;2.88;1.85;;;;;;;6.63;100.00;101830.56;5053619;28;20053;-76
2022/12/04 10:05:29;;;;;;;4.28;1.77;;;;;;;6.71;100.00;101832.81;5053759;28;20118;-78
2022/12/04 10:08:19;;;;;;;3.97;2.42;;;;;;;6.70;100.00;101829.34;5053471;28;20044;-76
2022/12/04 10:11:16;;;;;;;1.45;1.13;;;;;;;6.74;100.00;101826.25;5053671;28;20037;-76
2022/12/04 10:14:02;;;;;;;8.63;5.60;;;;;;;6.77;100.00;101802.47;5053717;28;20025;-76
2022/12/04 10:16:33;;;;;;;6.30;5.22;;;;;;;6.88;100.00;101810.94;5053235;28;20029;-76
2022/12/04 10:19:31;;;;;;;14.30;12.98;;;;;;;6.88;100.00;101809.28;5050787;28;20454;-75
2022/12/04 10:22:24;;;;;;;5.00;3.90;;;;;;;6.93;100.00;101801.94;5033185;28;20104;-76
2022/12/04 10:25:00;;;;;;;3.85;2.65;;;;;;;6.89;100.00;101811.06;5033184;28;20032;-76
2022/12/04 10:27:52;;;;;;;4.57;2.72;;;;;;;6.88;100.00;101813.50;5033473;28;20079;-76
2022/12/04 10:30:23;;;;;;;5.88;2.08;;;;;;;6.85;100.00;101805.59;5033101;28;20109;-76
2022/12/04 10:33:03;;;;;;;2.58;1.60;;;;;;;6.97;100.00;101794.53;5065222;28;20025;-76
2022/12/04 10:35:32;;;;;;;2.28;1.48;;;;;;;7.07;100.00;101790.97;5032930;28;20025;-76
2022/12/04 10:38:05;;;;;;;3.20;1.60;;;;;;;6.84;100.00;101747.31;5032935;28;20025;-77
2022/12/04 10:40:42;;;;;;;4.90;1.67;;;;;;;7.18;100.00;101784.03;5033171;28;20021;-77
2022/12/04 10:43:32;;;;;;;2.25;1.40;;;;;;;7.10;100.00;101778.38;5032967;28;20108;-76
2022/12/04 10:45:58;;;;;;;2.38;1.52;;;;;;;7.06;100.00;101780.59;5032895;28;20484;-77
2022/12/04 10:48:39;;;;;;;7.20;5.72;;;;;;;7.16;100.00;101769.31;5033077;28;20026;-75
2022/12/04 10:51:05;;;;;;;7.32;4.32;;;;;;;7.15;100.00;101765.84;5032743;28;20507;-76
2022/12/04 10:53:35;;;;;;;2.95;1.50;;;;;;;7.08;100.00;101735.38;5032676;28;20034;-76
2022/12/04 10:56:27;;;;;;;6.53;4.93;;;;;;;7.34;100.00;101760.34;5032781;28;20025;-76
2022/12/04 10:58:57;;;;;;;5.10;4.07;;;;;;;7.29;100.00;101767.72;4974515;28;20042;-76
2022/12/04 11:01:23;;;;;;;5.32;3.25;;;;;;;7.28;100.00;101741.94;4990650;28;20046;-76
2022/12/04 11:03:58;;;;;;;4.05;2.53;;;;;;;7.36;100.00;101747.59;4990799;28;20100;-77
2022/12/04 11:06:25;;;;;;;5.20;1.73;;;;;;;7.37;100.00;101746.81;4990880;28;20055;-76
2022/12/04 11:08:52;;;;;;;2.15;1.30;;;;;;;7.25;100.00;101762.25;4989744;28;20117;-76
2022/12/04 11:11:30;;;;;;;2.22;1.70;;;;;;;7.09;100.00;101768.88;4990883;28;20038;-76
2022/12/04 11:14:11;;;;;;;2.45;1.35;;;;;;;6.93;100.00;101760.84;4990726;28;20034;-76
2022/12/04 11:16:43;;;;;;;3.67;2.10;;;;;;;6.81;100.00;101722.34;4990567;28;20496;-75
2022/12/04 11:19:26;;;;;;;2.83;1.42;;;;;;;7.00;100.00;101736.50;4990124;28;20026;-76
2022/12/04 11:21:58;;;;;;;3.00;1.67;;;;;;;6.99;100.00;101737.28;4990556;28;20460;-76
2022/12/04 11:24:35;;;;;;;1.10;1.00;;;;;;;6.68;100.00;101686.28;4990498;28;20067;-76
2022/12/04 11:27:03;;;;;;;5.22;1.60;;;;;;;6.87;100.00;101717.66;4990305;28;20041;-75
2022/12/04 11:29:36;;;;;;;2.05;1.65;;;;;;;6.96;100.00;101732.81;4990067;28;20485;-76
2022/12/04 11:32:03;;;;;;;2.90;2.13;;;;;;;7.01;100.00;101733.16;4990347;28;20066;-77
2022/12/04 11:34:40;;;;;;;2.45;1.50;;;;;;;6.97;100.00;101737.16;4990062;28;20038;-76
2022/12/04 11:37:18;;;;;;;1.55;1.00;;;;;;;6.65;100.00;101681.81;5031752;28;20498;-76
2022/12/04 11:39:44;;;;;;;1.90;1.20;;;;;;;6.91;100.00;101731.59;5054265;28;20417;-77
2022/12/04 11:42:13;;;;;;;1.75;1.52;;;;;;;6.92;100.00;101730.81;5058705;28;20413;-77
2022/12/04 11:44:47;;;;;;;3.38;1.52;;;;;;;6.86;100.00;101710.72;5051492;28;20029;-75
2022/12/04 11:47:18;;;;;;;1.45;1.10;;;;;;;6.91;100.00;101716.19;5050755;28;20029;-76
2022/12/04 11:49:44;;;;;;;1.42;1.17;;;;;;;6.92;100.00;101712.84;5051027;28;20086;-76